Time;durP1;ratioP1;P1;durP2;ratioP2;P2;SDS_P1;SDS_P2;PMS_P1;PMS_P2;Temp;Humidity;BMP_temperature;BMP_pressure;BME280_temperature;BME280_humidity;BME280_pressure;Samples;Min_cycle;Max_cycle;Signal;HPM_P1;HPM_P2
2023/08/05 00:02:16;;;;;;;0.93;0.70;;;;;;;;;;5065090;28;20319;-62
2023/08/05 00:04:45;;;;;;;1.52;0.90;;;;;;;;;;5059902;28;20044;-62
2023/08/05 00:07:14;;;;;;;1.30;0.80;;;;;;;;;;5068461;28;20040;-62
2023/08/05 00:09:45;;;;;;;1.90;0.80;;;;;;;;;;5067478;28;20048;-60
2023/08/05 00:12:14;;;;;;;2.83;1.00;;;;;;;;;;5063019;28;20052;-61
2023/08/05 00:14:43;;;;;;;2.17;1.00;;;;;;;;;;5054704;28;20049;-60
2023/08/05 00:17:11;;;;;;;1.50;1.05;;;;;;;;;;5069074;28;20106;-63
2023/08/05 00:19:39;;;;;;;3.35;0.75;;;;;;;;;;5068324;28;20136;-60
2023/08/05 00:22:08;;;;;;;1.98;1.10;;;;;;;;;;5061575;28;20049;-60
2023/08/05 00:24:38;;;;;;;2.88;0.98;;;;;;;;;;5063772;28;20044;-62
2023/08/05 00:27:06;;;;;;;1.15;0.88;;;;;;;;;;5056033;28;20087;-60
2023/08/05 00:29:35;;;;;;;1.60;0.90;;;;;;;;;;5059537;28;20064;-61
2023/08/05 00:32:03;;;;;;;2.78;0.98;;;;;;;;;;5062084;28;20053;-63
2023/08/05 00:34:33;;;;;;;2.78;1.13;;;;;;;;;;5057533;28;20044;-62
2023/08/05 00:37:02;;;;;;;1.45;0.95;;;;;;;;;;5062170;28;20451;-61
2023/08/05 00:39:31;;;;;;;1.15;0.88;;;;;;;;;;5068023;28;20056;-60
2023/08/05 00:42:00;;;;;;;1.52;0.80;;;;;;;;;;5067217;28;21061;-60
2023/08/05 00:44:29;;;;;;;2.25;1.27;;;;;;;;;;5053603;28;20088;-62
2023/08/05 00:46:58;;;;;;;1.05;0.82;;;;;;;;;;5055308;28;20087;-63
2023/08/05 00:49:26;;;;;;;1.67;0.90;;;;;;;;;;5056913;28;20080;-60
2023/08/05 00:51:55;;;;;;;2.30;1.00;;;;;;;;;;5068760;28;20044;-60
2023/08/05 00:54:23;;;;;;;1.42;0.95;;;;;;;;;;5062353;28;20044;-61
2023/08/05 00:56:52;;;;;;;1.60;0.95;;;;;;;;;;5060914;28;20053;-62
2023/08/05 00:59:21;;;;;;;4.22;1.10;;;;;;;;;;5059544;28;20080;-61
2023/08/05 01:01:50;;;;;;;2.15;1.00;;;;;;;;;;5085053;22;20072;-63
2023/08/05 01:04:18;;;;;;;2.40;1.38;;;;;;;;;;5078407;28;20048;-64
2023/08/05 01:06:47;;;;;;;3.03;0.80;;;;;;;;;;5090814;28;20052;-65
2023/08/05 01:09:15;;;;;;;1.13;0.80;;;;;;;;;;5091378;28;20036;-64
2023/08/05 01:11:44;;;;;;;2.70;0.80;;;;;;;;;;5091747;28;20440;-63
2023/08/05 01:14:12;;;;;;;2.25;1.10;;;;;;;;;;5088934;28;20117;-65
2023/08/05 01:16:42;;;;;;;0.75;0.63;;;;;;;;;;5085675;28;20044;-63
2023/08/05 01:19:12;;;;;;;0.80;0.70;;;;;;;;;;5088942;28;20056;-64
2023/08/05 01:21:44;;;;;;;2.85;1.00;;;;;;;;;;5089283;28;20047;-63
2023/08/05 01:24:15;;;;;;;1.50;0.90;;;;;;;;;;5089210;28;20051;-66
2023/08/05 01:26:45;;;;;;;1.98;1.10;;;;;;;;;;5090302;28;20072;-63
2023/08/05 01:29:13;;;;;;;1.50;1.10;;;;;;;;;;5093888;28;20043;-63
2023/08/05 01:31:42;;;;;;;3.55;1.33;;;;;;;;;;5089041;28;20484;-63
2023/08/05 01:34:12;;;;;;;2.00;0.93;;;;;;;;;;5089747;28;20562;-64
2023/08/05 01:36:41;;;;;;;2.00;1.10;;;;;;;;;;5092500;28;20458;-64
2023/08/05 01:39:09;;;;;;;2.50;1.30;;;;;;;;;;5091645;28;20048;-63
2023/08/05 01:41:37;;;;;;;2.40;1.15;;;;;;;;;;5093684;28;20484;-63
2023/08/05 01:44:07;;;;;;;2.05;1.15;;;;;;;;;;5089280;28;20079;-65
2023/08/05 01:46:35;;;;;;;4.13;1.50;;;;;;;;;;5091502;28;20086;-63
2023/08/05 01:49:04;;;;;;;1.60;1.08;;;;;;;;;;5091922;28;20480;-66
2023/08/05 01:51:32;;;;;;;1.98;1.50;;;;;;;;;;5095047;28;20397;-65
2023/08/05 01:54:00;;;;;;;2.65;1.40;;;;;;;;;;5083942;28;20101;-62
2023/08/05 01:56:29;;;;;;;1.55;1.15;;;;;;;;;;5093977;28;20048;-62
2023/08/05 01:58:57;;;;;;;1.52;1.23;;;;;;;;;;5085713;28;20088;-63
2023/08/05 02:04:22;;;;;;;1.60;1.20;;;;;;;;;;5091317;27;20868;-61
2023/08/05 02:06:50;;;;;;;2.58;1.50;;;;;;;;;;5087693;28;20040;-62
2023/08/05 02:09:19;;;;;;;1.67;1.40;;;;;;;;;;5086248;28;20060;-63
2023/08/05 02:11:47;;;;;;;2.50;1.40;;;;;;;;;;5083456;28;20500;-62
2023/08/05 02:14:15;;;;;;;2.00;1.40;;;;;;;;;;5078339;28;20592;-61
2023/08/05 02:16:44;;;;;;;2.35;1.90;;;;;;;;;;5066543;28;20130;-68
2023/08/05 02:19:12;;;;;;;3.28;1.20;;;;;;;;;;5064527;28;20509;-62
2023/08/05 02:21:42;;;;;;;2.63;1.38;;;;;;;;;;5065570;28;20110;-62
2023/08/05 02:24:14;;;;;;;2.30;1.35;;;;;;;;;;5070051;28;20044;-63
2023/08/05 02:26:42;;;;;;;1.83;1.40;;;;;;;;;;5087291;28;20129;-61
2023/08/05 02:29:11;;;;;;;3.08;1.83;;;;;;;;;;5085138;28;20040;-61
2023/08/05 02:31:39;;;;;;;3.20;1.45;;;;;;;;;;5084185;28;20055;-61
2023/08/05 02:34:07;;;;;;;1.88;1.55;;;;;;;;;;5077350;28;20115;-61
2023/08/05 02:36:36;;;;;;;1.40;1.30;;;;;;;;;;5059267;28;20059;-62
2023/08/05 02:39:05;;;;;;;2.65;1.30;;;;;;;;;;5065471;28;20053;-61
2023/08/05 02:41:34;;;;;;;3.03;1.27;;;;;;;;;;5066662;28;20726;-61
2023/08/05 02:44:02;;;;;;;1.75;1.10;;;;;;;;;;5064175;28;20092;-61
2023/08/05 02:46:30;;;;;;;3.00;1.00;;;;;;;;;;5063979;28;20242;-62
2023/08/05 02:48:59;;;;;;;3.25;1.27;;;;;;;;;;5066516;28;20040;-61
2023/08/05 02:51:27;;;;;;;1.90;0.98;;;;;;;;;;5066168;28;20044;-62
2023/08/05 02:53:55;;;;;;;0.80;0.77;;;;;;;;;;5067944;28;20079;-65
2023/08/05 02:56:25;;;;;;;1.00;0.80;;;;;;;;;;5082495;28;20512;-61
2023/08/05 02:58:53;;;;;;;2.22;1.20;;;;;;;;;;5082516;28;20071;-63
2023/08/05 03:01:22;;;;;;;1.45;1.10;;;;;;;;;;5082624;28;20052;-62
2023/08/05 03:03:50;;;;;;;0.80;0.70;;;;;;;;;;5078347;28;20057;-60
2023/08/05 03:06:18;;;;;;;1.67;1.00;;;;;;;;;;5065809;28;20048;-63
2023/08/05 03:08:47;;;;;;;1.75;0.80;;;;;;;;;;5065657;28;20626;-62
2023/08/05 03:11:15;;;;;;;1.13;0.60;;;;;;;;;;5064113;28;20052;-62
2023/08/05 03:13:45;;;;;;;2.72;0.70;;;;;;;;;;5060804;28;20147;-64
2023/08/05 03:16:15;;;;;;;1.63;0.73;;;;;;;;;;5071745;28;20076;-63
2023/08/05 03:18:43;;;;;;;1.40;0.52;;;;;;;;;;5063434;28;20486;-61
2023/08/05 03:21:12;;;;;;;0.95;0.70;;;;;;;;;;5072810;28;20417;-61
2023/08/05 03:23:40;;;;;;;1.20;0.68;;;;;;;;;;5072172;28;20106;-63
2023/08/05 03:26:08;;;;;;;1.08;0.68;;;;;;;;;;5066671;28;20119;-61
2023/08/05 03:28:37;;;;;;;0.93;0.70;;;;;;;;;;5065316;28;20107;-64
2023/08/05 03:31:06;;;;;;;1.35;0.90;;;;;;;;;;5072719;28;20137;-62
2023/08/05 03:33:35;;;;;;;0.80;0.60;;;;;;;;;;5069374;28;20056;-61
2023/08/05 03:36:03;;;;;;;2.25;0.70;;;;;;;;;;5052428;28;20107;-61
2023/08/05 03:38:31;;;;;;;1.15;0.73;;;;;;;;;;5043446;28;20053;-61
2023/08/05 03:41:03;;;;;;;3.25;0.70;;;;;;;;;;5049859;28;20069;-61
2023/08/05 03:43:31;;;;;;;1.38;0.80;;;;;;;;;;5048757;28;20052;-61
2023/08/05 03:45:59;;;;;;;1.80;0.93;;;;;;;;;;5070829;28;20131;-61
2023/08/05 03:48:29;;;;;;;1.23;0.80;;;;;;;;;;5067130;28;20098;-64
2023/08/05 03:50:57;;;;;;;1.63;1.00;;;;;;;;;;5069108;28;20133;-64
2023/08/05 03:53:26;;;;;;;1.48;0.93;;;;;;;;;;5071457;28;20462;-65
2023/08/05 03:55:54;;;;;;;1.75;0.80;;;;;;;;;;5064179;28;20079;-61
2023/08/05 03:58:23;;;;;;;2.05;1.10;;;;;;;;;;5066747;28;20098;-62
2023/08/05 04:00:51;;;;;;;1.92;1.05;;;;;;;;;;5070713;28;20045;-64
2023/08/05 04:03:19;;;;;;;2.80;1.00;;;;;;;;;;5065561;28;20048;-61
2023/08/05 04:05:49;;;;;;;1.95;0.98;;;;;;;;;;5070156;28;20048;-63
2023/08/05 04:08:19;;;;;;;1.52;1.17;;;;;;;;;;5069613;28;20044;-61
2023/08/05 04:10:48;;;;;;;1.90;1.27;;;;;;;;;;5066709;28;20117;-63
2023/08/05 04:13:17;;;;;;;2.08;1.35;;;;;;;;;;5067393;28;20041;-62
2023/08/05 04:15:46;;;;;;;1.70;1.20;;;;;;;;;;5069775;28;20483;-62
2023/08/05 04:18:14;;;;;;;3.13;1.38;;;;;;;;;;5070980;28;20044;-65
2023/08/05 04:20:45;;;;;;;1.60;1.10;;;;;;;;;;5060784;28;20103;-62
2023/08/05 04:23:18;;;;;;;2.10;1.42;;;;;;;;;;5070200;28;20236;-62
2023/08/05 04:25:47;;;;;;;3.53;1.55;;;;;;;;;;5046135;28;20045;-63
2023/08/05 04:28:15;;;;;;;4.97;1.73;;;;;;;;;;5047013;28;20119;-64
2023/08/05 04:30:44;;;;;;;3.08;1.92;;;;;;;;;;5041012;28;20045;-62
2023/08/05 04:33:13;;;;;;;2.92;1.40;;;;;;;;;;5045100;28;20072;-62
2023/08/05 04:35:45;;;;;;;2.60;1.67;;;;;;;;;;5063570;28;20045;-62
2023/08/05 04:38:15;;;;;;;3.13;1.83;;;;;;;;;;5068224;28;20060;-62
2023/08/05 04:40:44;;;;;;;4.07;1.50;;;;;;;;;;5067474;28;20106;-64
2023/08/05 04:43:12;;;;;;;1.60;1.35;;;;;;;;;;5068086;28;20407;-63
2023/08/05 04:45:41;;;;;;;2.85;1.67;;;;;;;;;;5067991;28;20051;-62
2023/08/05 04:48:10;;;;;;;2.85;2.08;;;;;;;;;;5070871;28;20398;-64
2023/08/05 04:50:38;;;;;;;4.50;1.98;;;;;;;;;;5067726;28;20061;-61
2023/08/05 04:53:06;;;;;;;3.97;2.28;;;;;;;;;;5068304;28;20497;-64
2023/08/05 04:55:36;;;;;;;4.50;2.20;;;;;;;;;;5051321;28;20163;-63
2023/08/05 04:58:05;;;;;;;4.20;2.50;;;;;;;;;;5048003;28;20041;-61
2023/08/05 05:00:33;;;;;;;6.45;2.70;;;;;;;;;;5050191;28;20049;-62
2023/08/05 05:03:01;;;;;;;3.58;1.98;;;;;;;;;;5045329;28;20049;-62
2023/08/05 05:05:31;;;;;;;4.28;2.60;;;;;;;;;;5049887;28;20049;-62
2023/08/05 05:07:59;;;;;;;3.05;2.13;;;;;;;;;;5050450;28;20072;-62
2023/08/05 05:10:28;;;;;;;3.20;2.10;;;;;;;;;;5048776;28;20045;-61
2023/08/05 05:12:58;;;;;;;3.90;2.60;;;;;;;;;;5047142;28;20073;-62
2023/08/05 05:15:26;;;;;;;3.53;2.25;;;;;;;;;;5048748;28;20130;-64
2023/08/05 05:17:55;;;;;;;5.10;2.40;;;;;;;;;;5049849;28;20037;-63
2023/08/05 05:20:23;;;;;;;5.25;2.60;;;;;;;;;;5050358;28;20052;-61
2023/08/05 05:22:52;;;;;;;4.90;3.25;;;;;;;;;;5047004;28;20045;-65
2023/08/05 05:25:20;;;;;;;6.82;3.25;;;;;;;;;;5046274;28;20045;-64
2023/08/05 05:27:48;;;;;;;5.05;3.03;;;;;;;;;;5044835;28;20053;-64
2023/08/05 05:30:18;;;;;;;4.68;2.50;;;;;;;;;;5047532;28;20102;-63
2023/08/05 05:32:47;;;;;;;3.50;2.85;;;;;;;;;;5046784;28;20053;-64
2023/08/05 05:35:15;;;;;;;5.05;3.00;;;;;;;;;;5060492;28;20450;-60
2023/08/05 05:37:43;;;;;;;6.80;2.97;;;;;;;;;;5065103;28;20161;-64
2023/08/05 05:40:12;;;;;;;5.22;3.85;;;;;;;;;;5069328;28;20052;-61
2023/08/05 05:42:43;;;;;;;5.57;3.22;;;;;;;;;;5065413;28;20119;-63
2023/08/05 05:45:11;;;;;;;7.50;4.25;;;;;;;;;;5067046;28;20171;-61
2023/08/05 05:47:41;;;;;;;5.90;3.72;;;;;;;;;;5062722;28;20475;-61
2023/08/05 05:50:10;;;;;;;6.55;3.83;;;;;;;;;;5060939;28;20048;-61
2023/08/05 05:52:38;;;;;;;4.60;3.50;;;;;;;;;;5065616;28;20052;-61
2023/08/05 05:55:08;;;;;;;6.40;3.92;;;;;;;;;;5063956;28;20088;-62
2023/08/05 05:57:37;;;;;;;4.55;3.60;;;;;;;;;;5056038;28;20044;-62
2023/08/05 06:00:08;;;;;;;5.72;3.33;;;;;;;;;;5062966;28;20425;-61
2023/08/05 06:02:37;;;;;;;6.18;3.60;;;;;;;;;;5063927;28;20044;-65
2023/08/05 06:05:07;;;;;;;6.95;3.38;;;;;;;;;;5051810;28;20432;-63
2023/08/05 06:07:36;;;;;;;6.93;3.60;;;;;;;;;;5043962;28;20311;-62
2023/08/05 06:10:04;;;;;;;8.90;4.25;;;;;;;;;;5041755;28;20573;-61
2023/08/05 06:12:36;;;;;;;6.07;3.90;;;;;;;;;;5039933;28;20049;-62
2023/08/05 06:15:06;;;;;;;5.60;3.72;;;;;;;;;;5056932;28;20120;-61
2023/08/05 06:17:34;;;;;;;5.43;3.58;;;;;;;;;;5063121;28;20133;-62
2023/08/05 06:20:04;;;;;;;4.85;3.30;;;;;;;;;;5066175;28;20059;-62
2023/08/05 06:22:33;;;;;;;6.93;3.47;;;;;;;;;;5064326;28;20481;-62
2023/08/05 06:25:02;;;;;;;6.78;3.65;;;;;;;;;;5057474;28;20084;-61
2023/08/05 06:27:30;;;;;;;7.05;4.05;;;;;;;;;;5043327;28;20048;-66
2023/08/05 06:29:59;;;;;;;5.80;3.50;;;;;;;;;;5040846;28;20076;-61
2023/08/05 06:32:27;;;;;;;4.78;3.50;;;;;;;;;;5044640;28;20076;-64
2023/08/05 06:34:55;;;;;;;5.32;3.92;;;;;;;;;;5049523;28;20114;-62
2023/08/05 06:37:24;;;;;;;5.80;3.40;;;;;;;;;;5066736;28;20076;-60
2023/08/05 06:39:53;;;;;;;4.75;3.35;;;;;;;;;;5065160;28;20130;-61
2023/08/05 06:42:23;;;;;;;3.80;3.22;;;;;;;;;;5060979;28;20045;-63
2023/08/05 06:44:52;;;;;;;4.78;3.53;;;;;;;;;;5065007;28;20041;-64
2023/08/05 06:47:20;;;;;;;6.18;3.60;;;;;;;;;;5063927;28;20044;-63
2023/08/05 06:49:49;;;;;;;8.32;3.83;;;;;;;;;;5067093;28;20076;-62
2023/08/05 06:52:17;;;;;;;8.18;3.55;;;;;;;;;;5069007;28;20472;-72
2023/08/05 06:54:46;;;;;;;4.00;3.15;;;;;;;;;;5069102;28;20090;-63
2023/08/05 06:57:15;;;;;;;6.03;3.65;;;;;;;;;;5060937;28;20459;-66
2023/08/05 06:59:44;;;;;;;5.47;3.30;;;;;;;;;;5066151;28;21225;-64
2023/08/05 07:02:12;;;;;;;5.63;3.42;;;;;;;;;;5069279;28;20110;-62
2023/08/05 07:04:41;;;;;;;5.60;3.35;;;;;;;;;;5064231;28;20260;-68
2023/08/05 07:07:09;;;;;;;5.03;3.40;;;;;;;;;;5064550;28;20482;-64
2023/08/05 07:09:38;;;;;;;6.85;4.30;;;;;;;;;;5066995;28;20500;-63
2023/08/05 07:12:07;;;;;;;4.65;3.60;;;;;;;;;;5062578;28;20155;-63
2023/08/05 07:14:36;;;;;;;6.78;4.60;;;;;;;;;;5062226;28;20098;-63
2023/08/05 07:17:05;;;;;;;4.82;3.38;;;;;;;;;;5061380;28;20127;-62
2023/08/05 07:19:33;;;;;;;5.97;4.07;;;;;;;;;;5068254;28;20076;-66
2023/08/05 07:22:02;;;;;;;4.95;3.67;;;;;;;;;;5068507;28;20607;-63
2023/08/05 07:24:30;;;;;;;5.18;3.78;;;;;;;;;;5066892;28;20114;-63
2023/08/05 07:26:58;;;;;;;5.95;4.10;;;;;;;;;;5064537;28;20056;-63
2023/08/05 07:29:27;;;;;;;6.30;4.55;;;;;;;;;;5055705;28;20110;-67
2023/08/05 07:31:58;;;;;;;7.13;4.50;;;;;;;;;;5059212;28;20041;-68
2023/08/05 07:34:31;;;;;;;5.18;3.50;;;;;;;;;;5063921;28;20120;-66
2023/08/05 07:36:59;;;;;;;5.93;3.90;;;;;;;;;;5067254;28;20501;-62
2023/08/05 07:39:33;;;;;;;6.18;3.65;;;;;;;;;;5066058;28;20079;-63
2023/08/05 07:42:02;;;;;;;5.30;3.67;;;;;;;;;;5062484;28;20143;-66
2023/08/05 07:44:32;;;;;;;4.38;3.47;;;;;;;;;;5060863;28;20446;-64
2023/08/05 07:47:02;;;;;;;5.10;3.50;;;;;;;;;;5062412;28;20045;-63
2023/08/05 07:49:30;;;;;;;6.00;3.38;;;;;;;;;;5065581;28;20048;-64
2023/08/05 07:51:58;;;;;;;5.68;3.50;;;;;;;;;;5061523;28;20842;-62
2023/08/05 07:54:27;;;;;;;8.85;3.75;;;;;;;;;;5066244;28;20080;-65
2023/08/05 07:56:57;;;;;;;6.32;3.58;;;;;;;;;;5064088;28;20053;-68
2023/08/05 07:59:27;;;;;;;7.13;4.20;;;;;;;;;;5067879;28;20044;-66
2023/08/05 08:01:56;;;;;;;6.43;3.92;;;;;;;;;;5062922;28;20718;-62
2023/08/05 08:04:26;;;;;;;5.68;3.80;;;;;;;;;;5057534;28;20052;-63
2023/08/05 08:06:54;;;;;;;6.30;3.90;;;;;;;;;;5038428;28;20077;-64
2023/08/05 08:09:22;;;;;;;6.18;3.78;;;;;;;;;;5047590;28;20037;-65
2023/08/05 08:11:51;;;;;;;5.80;4.05;;;;;;;;;;5044367;28;20099;-67
2023/08/05 08:14:20;;;;;;;8.25;4.45;;;;;;;;;;5040426;28;20163;-64
2023/08/05 08:16:48;;;;;;;5.00;3.85;;;;;;;;;;5046706;28;20072;-64
2023/08/05 08:19:18;;;;;;;6.68;4.32;;;;;;;;;;5045730;28;20046;-66
2023/08/05 08:21:48;;;;;;;6.97;4.20;;;;;;;;;;5042099;28;20044;-67
2023/08/05 08:24:17;;;;;;;6.65;3.67;;;;;;;;;;5048974;28;20540;-64
2023/08/05 08:26:45;;;;;;;9.35;4.25;;;;;;;;;;5065193;28;20072;-67
2023/08/05 08:29:14;;;;;;;7.30;4.88;;;;;;;;;;5064593;28;20520;-62
2023/08/05 08:31:42;;;;;;;4.95;3.58;;;;;;;;;;5061403;28;20072;-64
2023/08/05 08:34:11;;;;;;;9.23;4.35;;;;;;;;;;5063964;28;20052;-62
2023/08/05 08:36:39;;;;;;;5.75;4.15;;;;;;;;;;5062100;28;20131;-63
2023/08/05 08:39:09;;;;;;;8.77;4.57;;;;;;;;;;5063654;28;20052;-73
2023/08/05 08:41:41;;;;;;;5.20;3.85;;;;;;;;;;5060103;28;20339;-61
2023/08/05 08:44:10;;;;;;;10.82;4.47;;;;;;;;;;5061735;28;20094;-64
2023/08/05 08:46:39;;;;;;;6.55;4.43;;;;;;;;;;5061881;28;20087;-61
2023/08/05 08:49:08;;;;;;;8.15;4.45;;;;;;;;;;5062343;28;20060;-64
2023/08/05 08:51:37;;;;;;;6.47;4.18;;;;;;;;;;5065952;28;20084;-64
2023/08/05 08:54:06;;;;;;;6.70;4.60;;;;;;;;;;5055692;28;20111;-67
2023/08/05 08:56:37;;;;;;;6.38;4.35;;;;;;;;;;5043608;28;20068;-61
2023/08/05 08:59:05;;;;;;;5.18;4.05;;;;;;;;;;5044668;28;20444;-63
2023/08/05 09:01:34;;;;;;;6.75;4.32;;;;;;;;;;5045046;28;20045;-64
2023/08/05 09:04:04;;;;;;;8.25;4.47;;;;;;;;;;5046184;28;20518;-66
2023/08/05 09:06:32;;;;;;;6.15;4.07;;;;;;;;;;5046382;28;20049;-63
2023/08/05 09:09:00;;;;;;;8.48;4.90;;;;;;;;;;5045545;28;20052;-64
2023/08/05 09:11:29;;;;;;;4.13;3.58;;;;;;;;;;5037792;28;20492;-65
2023/08/05 09:13:58;;;;;;;6.07;4.30;;;;;;;;;;5043192;28;20048;-68
2023/08/05 09:16:27;;;;;;;7.13;4.05;;;;;;;;;;5063329;28;20055;-62
2023/08/05 09:18:57;;;;;;;5.47;3.85;;;;;;;;;;5060316;28;20037;-64
2023/08/05 09:21:27;;;;;;;5.20;3.85;;;;;;;;;;5062651;28;20489;-62
2023/08/05 09:23:56;;;;;;;5.25;3.65;;;;;;;;;;5060637;28;20076;-62
2023/08/05 09:26:28;;;;;;;4.28;3.38;;;;;;;;;;5056892;28;20535;-66
2023/08/05 09:28:58;;;;;;;7.32;3.95;;;;;;;;;;5065878;28;20048;-66
2023/08/05 09:31:27;;;;;;;8.40;3.70;;;;;;;;;;5060810;28;20052;-65
2023/08/05 09:33:56;;;;;;;4.72;3.40;;;;;;;;;;5054900;28;20493;-62
2023/08/05 09:36:25;;;;;;;7.45;4.10;;;;;;;;;;5042270;28;20468;-61
2023/08/05 09:39:03;;;;;;;6.43;4.07;;;;;;;;;;5039466;28;20080;-65
2023/08/05 09:41:32;;;;;;;7.80;4.03;;;;;;;;;;5042138;28;20049;-62
2023/08/05 09:44:04;;;;;;;6.03;3.90;;;;;;;;;;5035975;28;20040;-70
2023/08/05 09:46:39;;;;;;;6.68;3.83;;;;;;;;;;5046840;28;20084;-64
2023/08/05 09:49:09;;;;;;;6.05;4.32;;;;;;;;;;5042172;28;20057;-64
2023/08/05 09:51:38;;;;;;;10.02;4.65;;;;;;;;;;5046323;28;20080;-64
2023/08/05 09:54:09;;;;;;;6.88;4.55;;;;;;;;;;5044283;28;20066;-63
2023/08/05 09:56:38;;;;;;;7.53;5.05;;;;;;;;;;5063057;28;20661;-66
2023/08/05 09:59:08;;;;;;;7.85;5.40;;;;;;;;;;5063389;28;20131;-62
2023/08/05 10:01:37;;;;;;;9.07;5.72;;;;;;;;;;5061999;28;20142;-63
2023/08/05 10:04:05;;;;;;;11.43;5.72;;;;;;;;;;5066074;28;20117;-67
2023/08/05 10:06:38;;;;;;;10.02;5.85;;;;;;;;;;5063721;28;20504;-64
2023/08/05 10:09:08;;;;;;;7.30;5.50;;;;;;;;;;5061976;28;20048;-66
2023/08/05 10:11:37;;;;;;;9.57;5.38;;;;;;;;;;5063892;28;20084;-63
2023/08/05 10:14:05;;;;;;;10.18;5.32;;;;;;;;;;5057397;28;20045;-63
2023/08/05 10:16:37;;;;;;;7.63;5.50;;;;;;;;;;5041923;28;20049;-62
2023/08/05 10:19:05;;;;;;;7.03;4.82;;;;;;;;;;5042756;28;20051;-63
2023/08/05 10:21:37;;;;;;;7.05;4.70;;;;;;;;;;5037776;28;20046;-62
2023/08/05 10:24:06;;;;;;;7.00;4.65;;;;;;;;;;5044694;28;20067;-63
2023/08/05 10:26:38;;;;;;;6.72;4.53;;;;;;;;;;5060224;28;20568;-65
2023/08/05 10:29:22;;;;;;;6.78;5.00;;;;;;;;;;5066325;28;20558;-62
2023/08/05 10:31:51;;;;;;;5.50;4.47;;;;;;;;;;5065348;28;20529;-62
2023/08/05 10:34:21;;;;;;;5.88;4.60;;;;;;;;;;5068544;28;20037;-63
2023/08/05 10:36:49;;;;;;;5.72;4.25;;;;;;;;;;5066788;28;20064;-68
2023/08/05 10:39:36;;;;;;;6.30;5.00;;;;;;;;;;5066265;28;20057;-63
2023/08/05 10:42:18;;;;;;;6.32;4.63;;;;;;;;;;5067412;28;20098;-63
2023/08/05 10:44:46;;;;;;;8.13;4.82;;;;;;;;;;5053777;28;20111;-63
2023/08/05 10:47:20;;;;;;;7.88;5.13;;;;;;;;;;5047377;28;20053;-63
2023/08/05 10:49:48;;;;;;;9.10;4.60;;;;;;;;;;5045020;28;20060;-62
2023/08/05 10:52:17;;;;;;;5.95;4.32;;;;;;;;;;5047029;28;20048;-66
2023/08/05 10:54:47;;;;;;;10.00;4.82;;;;;;;;;;5045721;28;20072;-63
2023/08/05 10:57:35;;;;;;;7.25;5.28;;;;;;;;;;5046364;28;20136;-63
2023/08/05 11:00:05;;;;;;;9.05;5.38;;;;;;;;;;5043827;28;20154;-61
2023/08/05 11:02:37;;;;;;;8.60;5.70;;;;;;;;;;5040870;28;20051;-61
2023/08/05 11:05:07;;;;;;;6.68;5.22;;;;;;;;;;5059903;28;20040;-62
2023/08/05 11:07:38;;;;;;;11.43;5.80;;;;;;;;;;5067569;28;20072;-65
2023/08/05 11:10:07;;;;;;;9.93;6.20;;;;;;;;;;5065022;28;20049;-64
2023/08/05 11:12:35;;;;;;;9.43;6.57;;;;;;;;;;5063891;28;20037;-62
2023/08/05 11:15:04;;;;;;;10.00;5.65;;;;;;;;;;5057337;28;20048;-62
2023/08/05 11:17:32;;;;;;;9.82;5.38;;;;;;;;;;5043537;28;20828;-64
2023/08/05 11:20:02;;;;;;;8.90;5.78;;;;;;;;;;5047730;28;20045;-63
2023/08/05 11:22:32;;;;;;;8.95;6.47;;;;;;;;;;5048888;28;20049;-62
2023/08/05 11:25:01;;;;;;;9.10;6.38;;;;;;;;;;5057590;28;20497;-62
2023/08/05 11:27:30;;;;;;;12.70;6.80;;;;;;;;;;5064927;28;20575;-62
2023/08/05 11:29:58;;;;;;;11.88;7.32;;;;;;;;;;5065546;28;20045;-62
2023/08/05 11:32:31;;;;;;;13.07;6.65;;;;;;;;;;5064151;28;20132;-63
2023/08/05 11:35:04;;;;;;;12.15;6.97;;;;;;;;;;5066836;28;20047;-64
2023/08/05 11:37:37;;;;;;;10.38;7.63;;;;;;;;;;5068387;28;20071;-64
2023/08/05 11:40:06;;;;;;;10.32;6.22;;;;;;;;;;5063069;28;20106;-65
2023/08/05 11:42:39;;;;;;;9.13;7.00;;;;;;;;;;5065978;28;20690;-63
2023/08/05 11:45:08;;;;;;;12.23;7.38;;;;;;;;;;5050820;28;20505;-62
2023/08/05 11:47:38;;;;;;;11.52;7.18;;;;;;;;;;5048833;28;20501;-64
2023/08/05 11:50:08;;;;;;;8.88;6.20;;;;;;;;;;5048640;28;20409;-62
2023/08/05 11:52:37;;;;;;;8.90;6.70;;;;;;;;;;5047583;28;20076;-65
2023/08/05 11:55:06;;;;;;;10.57;7.28;;;;;;;;;;5045093;28;20424;-66
2023/08/05 11:57:35;;;;;;;10.10;6.82;;;;;;;;;;5043095;28;20045;-65
2023/08/05 12:00:08;;;;;;;8.32;6.18;;;;;;;;;;5046050;28;20118;-66
2023/08/05 12:02:37;;;;;;;10.32;6.93;;;;;;;;;;5048069;28;20136;-65
2023/08/05 12:05:07;;;;;;;9.88;6.10;;;;;;;;;;5039698;28;20111;-63
2023/08/05 12:07:41;;;;;;;8.15;6.55;;;;;;;;;;5046877;28;20080;-63
2023/08/05 12:10:11;;;;;;;9.48;6.68;;;;;;;;;;5041593;28;20368;-64
2023/08/05 12:12:43;;;;;;;7.57;5.35;;;;;;;;;;5040630;28;20486;-63
2023/08/05 12:15:12;;;;;;;11.07;5.63;;;;;;;;;;5060317;28;20050;-63
2023/08/05 12:17:41;;;;;;;8.73;5.80;;;;;;;;;;5063488;28;20048;-64
2023/08/05 12:20:11;;;;;;;11.52;6.70;;;;;;;;;;5063942;28;20056;-69
2023/08/05 12:22:40;;;;;;;11.80;6.68;;;;;;;;;;5058927;28;20106;-66
2023/08/05 12:25:08;;;;;;;8.88;5.95;;;;;;;;;;5052835;28;20111;-68
2023/08/05 12:27:37;;;;;;;8.98;5.78;;;;;;;;;;5039368;28;20098;-63
2023/08/05 12:30:06;;;;;;;8.85;6.57;;;;;;;;;;5046889;28;20045;-61
2023/08/05 12:32:35;;;;;;;8.63;6.20;;;;;;;;;;5044981;28;20044;-68
2023/08/05 12:35:03;;;;;;;10.40;7.15;;;;;;;;;;5038163;28;20145;-65
2023/08/05 12:37:35;;;;;;;10.77;6.97;;;;;;;;;;5041173;28;20072;-64
2023/08/05 12:40:03;;;;;;;10.20;7.45;;;;;;;;;;5044951;28;20106;-63
2023/08/05 12:42:32;;;;;;;10.50;6.72;;;;;;;;;;5040903;28;20386;-67
2023/08/05 12:45:03;;;;;;;9.88;6.40;;;;;;;;;;5042962;28;20053;-65
2023/08/05 12:47:34;;;;;;;11.15;7.60;;;;;;;;;;5046067;28;20049;-63
2023/08/05 12:50:02;;;;;;;10.85;6.45;;;;;;;;;;5042330;28;20059;-62
2023/08/05 12:52:31;;;;;;;10.90;6.45;;;;;;;;;;5043301;28;20616;-63
2023/08/05 12:55:01;;;;;;;9.13;6.22;;;;;;;;;;5055196;28;20041;-67
2023/08/05 12:57:31;;;;;;;8.80;5.40;;;;;;;;;;5066930;28;20052;-64
2023/08/05 13:00:00;;;;;;;8.57;5.32;;;;;;;;;;5062724;28;20064;-66
2023/08/05 13:02:29;;;;;;;10.60;5.78;;;;;;;;;;5062431;28;20053;-63
2023/08/05 13:04:58;;;;;;;8.73;4.80;;;;;;;;;;5064558;28;20485;-64
2023/08/05 13:07:26;;;;;;;8.73;5.80;;;;;;;;;;5066015;28;20052;-66
2023/08/05 13:09:55;;;;;;;7.30;4.50;;;;;;;;;;5065100;28;20048;-62
2023/08/05 13:12:25;;;;;;;6.85;5.03;;;;;;;;;;5068893;28;20048;-63
2023/08/05 13:14:53;;;;;;;8.18;4.38;;;;;;;;;;5051082;28;20540;-64
2023/08/05 13:17:21;;;;;;;9.80;4.78;;;;;;;;;;5047884;28;20080;-64
2023/08/05 13:19:50;;;;;;;7.63;4.68;;;;;;;;;;5048369;28;20049;-63
2023/08/05 13:22:18;;;;;;;6.60;4.68;;;;;;;;;;5048187;28;20098;-62
2023/08/05 13:24:46;;;;;;;8.95;4.70;;;;;;;;;;5047916;28;20497;-65
2023/08/05 13:27:15;;;;;;;7.03;4.40;;;;;;;;;;5042330;28;20552;-64
2023/08/05 13:29:44;;;;;;;9.75;4.53;;;;;;;;;;5046610;28;20053;-62
2023/08/05 13:32:13;;;;;;;5.82;3.90;;;;;;;;;;5048086;28;20103;-62
2023/08/05 13:34:41;;;;;;;6.93;3.53;;;;;;;;;;5047260;28;20498;-65
2023/08/05 13:37:09;;;;;;;6.25;3.30;;;;;;;;;;5049821;28;20530;-66
2023/08/05 13:39:38;;;;;;;5.78;3.22;;;;;;;;;;5044104;28;20071;-62
2023/08/05 13:42:06;;;;;;;5.90;3.60;;;;;;;;;;5039675;28;20045;-63
2023/08/05 13:44:35;;;;;;;4.97;3.13;;;;;;;;;;5051548;28;20107;-66
2023/08/05 13:47:05;;;;;;;5.72;4.43;;;;;;;;;;5067806;28;20055;-62
2023/08/05 13:49:33;;;;;;;5.50;3.80;;;;;;;;;;5067329;28;20053;-63
2023/08/05 13:52:02;;;;;;;5.15;3.78;;;;;;;;;;5059048;28;20045;-62
2023/08/05 13:54:30;;;;;;;5.18;3.60;;;;;;;;;;5054898;27;20053;-63
2023/08/05 13:56:59;;;;;;;4.50;3.60;;;;;;;;;;5049294;28;20094;-62
2023/08/05 13:59:27;;;;;;;4.88;3.60;;;;;;;;;;5049127;28;20206;-62
2023/08/05 14:01:55;;;;;;;4.53;3.38;;;;;;;;;;5048958;28;20040;-63
2023/08/05 14:04:25;;;;;;;5.32;3.83;;;;;;;;;;5041238;28;20123;-62
2023/08/05 14:06:53;;;;;;;6.50;3.78;;;;;;;;;;5047572;28;20049;-63
2023/08/05 14:09:22;;;;;;;6.30;3.72;;;;;;;;;;5047408;28;20443;-62
2023/08/05 14:11:50;;;;;;;6.10;3.92;;;;;;;;;;5046265;28;20057;-62
2023/08/05 14:14:19;;;;;;;7.43;4.35;;;;;;;;;;5047001;28;20072;-63
2023/08/05 14:16:51;;;;;;;5.97;3.95;;;;;;;;;;5049989;28;20463;-62
2023/08/05 14:19:19;;;;;;;7.88;4.60;;;;;;;;;;5047893;28;20134;-62
2023/08/05 14:21:49;;;;;;;7.25;4.68;;;;;;;;;;5050327;28;20103;-62
2023/08/05 14:24:18;;;;;;;5.90;4.03;;;;;;;;;;5047505;28;20056;-62
2023/08/05 14:26:46;;;;;;;6.40;4.05;;;;;;;;;;5049481;28;20041;-67
2023/08/05 14:29:15;;;;;;;5.32;3.70;;;;;;;;;;5048185;28;20547;-62
2023/08/05 14:31:43;;;;;;;6.18;4.25;;;;;;;;;;5046798;28;20476;-62
2023/08/05 14:34:12;;;;;;;3.90;3.33;;;;;;;;;;5054470;28;20493;-63
2023/08/05 14:36:40;;;;;;;6.68;4.68;;;;;;;;;;5068778;28;20076;-63
2023/08/05 14:39:10;;;;;;;6.90;4.40;;;;;;;;;;5067773;28;20045;-67
2023/08/05 14:41:39;;;;;;;6.10;4.18;;;;;;;;;;5059749;28;20044;-62
2023/08/05 14:44:07;;;;;;;6.55;4.30;;;;;;;;;;5067807;28;20433;-62
2023/08/05 14:46:35;;;;;;;5.97;4.13;;;;;;;;;;5064168;28;20461;-64
2023/08/05 14:49:04;;;;;;;7.57;4.15;;;;;;;;;;5066245;28;20052;-64
2023/08/05 14:51:32;;;;;;;7.32;4.22;;;;;;;;;;5063633;28;20098;-62
2023/08/05 14:54:01;;;;;;;6.40;3.80;;;;;;;;;;5061943;28;20040;-64
2023/08/05 14:56:31;;;;;;;5.93;4.40;;;;;;;;;;5065645;28;20437;-62
2023/08/05 14:58:59;;;;;;;6.05;4.25;;;;;;;;;;5069432;28;20482;-62